sensor_id;sensor_type;location;lat;lon;timestamp;temperature;humidity
46752;DHT22;32497;48.936;9.270;2024-02-23T00:01:22;6.60;77.90
46752;DHT22;32497;48.936;9.270;2024-02-23T00:06:24;6.70;77.20
46752;DHT22;32497;48.936;9.270;2024-02-23T00:11:25;6.70;76.30
46752;DHT22;32497;48.936;9.270;2024-02-23T00:16:27;6.80;76.00
46752;DHT22;32497;48.936;9.270;2024-02-23T00:21:29;6.70;78.10
46752;DHT22;32497;48.936;9.270;2024-02-23T00:26:30;6.70;77.20
46752;DHT22;32497;48.936;9.270;2024-02-23T00:31:31;6.60;76.90
46752;DHT22;32497;48.936;9.270;2024-02-23T00:36:34;6.60;77.80
46752;DHT22;32497;48.936;9.270;2024-02-23T00:41:35;6.60;76.90
46752;DHT22;32497;48.936;9.270;2024-02-23T00:46:36;6.60;77.10
46752;DHT22;32497;48.936;9.270;2024-02-23T00:51:39;6.60;75.10
46752;DHT22;32497;48.936;9.270;2024-02-23T00:56:40;6.60;74.30
46752;DHT22;32497;48.936;9.270;2024-02-23T01:01:41;6.60;75.90
46752;DHT22;32497;48.936;9.270;2024-02-23T01:06:43;6.60;74.70
46752;DHT22;32497;48.936;9.270;2024-02-23T01:11:44;6.60;73.10
46752;DHT22;32497;48.936;9.270;2024-02-23T01:16:45;6.60;75.30
46752;DHT22;32497;48.936;9.270;2024-02-23T01:21:48;6.50;74.00
46752;DHT22;32497;48.936;9.270;2024-02-23T01:26:49;6.50;73.10
46752;DHT22;32497;48.936;9.270;2024-02-23T01:31:50;6.50;73.10
46752;DHT22;32497;48.936;9.270;2024-02-23T01:36:52;6.50;73.50
46752;DHT22;32497;48.936;9.270;2024-02-23T01:41:53;6.40;74.40
46752;DHT22;32497;48.936;9.270;2024-02-23T01:46:55;6.30;74.20
46752;DHT22;32497;48.936;9.270;2024-02-23T01:51:57;6.30;73.50
46752;DHT22;32497;48.936;9.270;2024-02-23T01:56:59;6.30;73.50
46752;DHT22;32497;48.936;9.270;2024-02-23T02:02:01;6.30;74.20
46752;DHT22;32497;48.936;9.270;2024-02-23T02:07:05;6.40;74.60
46752;DHT22;32497;48.936;9.270;2024-02-23T02:12:06;6.40;74.10
46752;DHT22;32497;48.936;9.270;2024-02-23T02:17:07;6.50;74.80
46752;DHT22;32497;48.936;9.270;2024-02-23T02:22:09;6.50;75.40
46752;DHT22;32497;48.936;9.270;2024-02-23T02:27:10;6.40;75.70
46752;DHT22;32497;48.936;9.270;2024-02-23T02:32:11;6.40;77.40
46752;DHT22;32497;48.936;9.270;2024-02-23T02:37:14;6.30;77.30
46752;DHT22;32497;48.936;9.270;2024-02-23T02:42:15;6.10;77.80
46752;DHT22;32497;48.936;9.270;2024-02-23T02:47:16;6.00;78.60
46752;DHT22;32497;48.936;9.270;2024-02-23T02:52:19;5.90;78.80
46752;DHT22;32497;48.936;9.270;2024-02-23T02:57:20;5.80;79.90
46752;DHT22;32497;48.936;9.270;2024-02-23T03:02:21;5.70;80.20
46752;DHT22;32497;48.936;9.270;2024-02-23T03:07:23;5.70;80.60
46752;DHT22;32497;48.936;9.270;2024-02-23T03:12:24;5.70;79.60
46752;DHT22;32497;48.936;9.270;2024-02-23T03:17:25;5.70;80.50
46752;DHT22;32497;48.936;9.270;2024-02-23T03:22:28;5.70;79.40
46752;DHT22;32497;48.936;9.270;2024-02-23T03:27:29;5.70;78.00
46752;DHT22;32497;48.936;9.270;2024-02-23T03:32:30;5.90;77.60
46752;DHT22;32497;48.936;9.270;2024-02-23T03:37:32;5.80;78.40
46752;DHT22;32497;48.936;9.270;2024-02-23T03:42:34;5.80;78.60
46752;DHT22;32497;48.936;9.270;2024-02-23T03:47:35;5.90;77.20
46752;DHT22;32497;48.936;9.270;2024-02-23T03:52:37;5.80;79.10
46752;DHT22;32497;48.936;9.270;2024-02-23T03:57:39;5.80;77.50
46752;DHT22;32497;48.936;9.270;2024-02-23T04:02:40;5.80;77.50
46752;DHT22;32497;48.936;9.270;2024-02-23T04:07:42;5.80;76.50
46752;DHT22;32497;48.936;9.270;2024-02-23T04:12:43;5.80;77.10
46752;DHT22;32497;48.936;9.270;2024-02-23T04:17:45;5.80;73.10
46752;DHT22;32497;48.936;9.270;2024-02-23T04:22:48;5.90;72.40
46752;DHT22;32497;48.936;9.270;2024-02-23T04:27:49;5.80;72.10
46752;DHT22;32497;48.936;9.270;2024-02-23T04:32:50;5.70;73.30
46752;DHT22;32497;48.936;9.270;2024-02-23T04:37:52;5.60;71.90
46752;DHT22;32497;48.936;9.270;2024-02-23T04:42:54;5.60;71.70
46752;DHT22;32497;48.936;9.270;2024-02-23T04:47:55;5.50;71.90
46752;DHT22;32497;48.936;9.270;2024-02-23T04:52:57;5.60;71.00
46752;DHT22;32497;48.936;9.270;2024-02-23T04:57:58;5.60;71.40
46752;DHT22;32497;48.936;9.270;2024-02-23T05:02:59;5.40;71.40
46752;DHT22;32497;48.936;9.270;2024-02-23T05:08:02;5.40;71.30
46752;DHT22;32497;48.936;9.270;2024-02-23T05:13:04;5.50;70.00
46752;DHT22;32497;48.936;9.270;2024-02-23T05:18:06;5.50;68.70
46752;DHT22;32497;48.936;9.270;2024-02-23T05:23:08;5.30;69.00
46752;DHT22;32497;48.936;9.270;2024-02-23T05:28:09;5.10;69.70
46752;DHT22;32497;48.936;9.270;2024-02-23T05:33:10;5.10;69.40
46752;DHT22;32497;48.936;9.270;2024-02-23T05:38:13;5.10;70.30
46752;DHT22;32497;48.936;9.270;2024-02-23T05:43:14;4.90;72.10
46752;DHT22;32497;48.936;9.270;2024-02-23T05:48:15;4.90;73.50
46752;DHT22;32497;48.936;9.270;2024-02-23T05:53:18;4.90;72.00
46752;DHT22;32497;48.936;9.270;2024-02-23T05:58:19;4.90;70.70
46752;DHT22;32497;48.936;9.270;2024-02-23T06:03:20;5.10;71.00
46752;DHT22;32497;48.936;9.270;2024-02-23T06:08:22;5.10;71.00
46752;DHT22;32497;48.936;9.270;2024-02-23T06:13:23;5.10;71.80
46752;DHT22;32497;48.936;9.270;2024-02-23T06:18:24;5.10;72.00
46752;DHT22;32497;48.936;9.270;2024-02-23T06:23:27;5.00;73.30
46752;DHT22;32497;48.936;9.270;2024-02-23T06:28:28;4.90;73.90
46752;DHT22;32497;48.936;9.270;2024-02-23T06:33:30;4.90;74.10
46752;DHT22;32497;48.936;9.270;2024-02-23T06:38:32;4.80;75.00
46752;DHT22;32497;48.936;9.270;2024-02-23T06:43:34;4.80;75.30
46752;DHT22;32497;48.936;9.270;2024-02-23T06:48:35;4.70;74.40
46752;DHT22;32497;48.936;9.270;2024-02-23T06:53:37;4.60;74.50
46752;DHT22;32497;48.936;9.270;2024-02-23T06:58:39;4.60;75.10
46752;DHT22;32497;48.936;9.270;2024-02-23T07:03:40;4.60;75.00
46752;DHT22;32497;48.936;9.270;2024-02-23T07:08:42;4.60;75.50
46752;DHT22;32497;48.936;9.270;2024-02-23T07:13:43;4.60;75.90
46752;DHT22;32497;48.936;9.270;2024-02-23T07:18:45;4.60;77.00
46752;DHT22;32497;48.936;9.270;2024-02-23T07:23:47;4.70;76.20
46752;DHT22;32497;48.936;9.270;2024-02-23T07:28:48;4.70;77.00
46752;DHT22;32497;48.936;9.270;2024-02-23T07:33:49;4.80;77.50
46752;DHT22;32497;48.936;9.270;2024-02-23T07:38:52;4.80;78.00
46752;DHT22;32497;48.936;9.270;2024-02-23T07:43:53;4.90;77.90
46752;DHT22;32497;48.936;9.270;2024-02-23T07:48:54;5.00;78.60
46752;DHT22;32497;48.936;9.270;2024-02-23T07:53:56;5.20;79.00
46752;DHT22;32497;48.936;9.270;2024-02-23T07:58:57;5.30;78.90
46752;DHT22;32497;48.936;9.270;2024-02-23T08:03:58;5.60;78.70
46752;DHT22;32497;48.936;9.270;2024-02-23T08:09:01;5.60;79.20
46752;DHT22;32497;48.936;9.270;2024-02-23T08:14:02;5.40;79.50
46752;DHT22;32497;48.936;9.270;2024-02-23T08:19:03;5.30;80.20
46752;DHT22;32497;48.936;9.270;2024-02-23T08:24:06;5.20;80.00
46752;DHT22;32497;48.936;9.270;2024-02-23T08:29:07;5.20;79.70
46752;DHT22;32497;48.936;9.270;2024-02-23T08:34:08;5.30;79.90
46752;DHT22;32497;48.936;9.270;2024-02-23T08:39:11;5.40;79.40
46752;DHT22;32497;48.936;9.270;2024-02-23T08:44:12;5.60;79.10
46752;DHT22;32497;48.936;9.270;2024-02-23T08:49:14;5.70;78.60
46752;DHT22;32497;48.936;9.270;2024-02-23T08:54:16;5.70;78.70
46752;DHT22;32497;48.936;9.270;2024-02-23T08:59:17;5.70;78.60
46752;DHT22;32497;48.936;9.270;2024-02-23T09:04:19;5.90;78.30
46752;DHT22;32497;48.936;9.270;2024-02-23T09:09:21;6.30;76.70
46752;DHT22;32497;48.936;9.270;2024-02-23T09:14:23;6.40;76.10
46752;DHT22;32497;48.936;9.270;2024-02-23T09:19:24;6.60;75.80
46752;DHT22;32497;48.936;9.270;2024-02-23T09:24:26;6.70;74.30
46752;DHT22;32497;48.936;9.270;2024-02-23T09:29:28;6.70;73.90
46752;DHT22;32497;48.936;9.270;2024-02-23T09:34:29;6.70;74.10
46752;DHT22;32497;48.936;9.270;2024-02-23T09:39:32;6.70;72.70
46752;DHT22;32497;48.936;9.270;2024-02-23T09:44:33;6.80;72.40
46752;DHT22;32497;48.936;9.270;2024-02-23T09:49:35;6.80;71.50
46752;DHT22;32497;48.936;9.270;2024-02-23T09:54:40;6.90;71.40
46752;DHT22;32497;48.936;9.270;2024-02-23T09:59:41;6.90;68.80
46752;DHT22;32497;48.936;9.270;2024-02-23T10:04:43;7.20;67.60
46752;DHT22;32497;48.936;9.270;2024-02-23T10:09:46;7.00;66.60
46752;DHT22;32497;48.936;9.270;2024-02-23T10:14:47;7.20;66.30
46752;DHT22;32497;48.936;9.270;2024-02-23T10:19:48;7.50;64.90
46752;DHT22;32497;48.936;9.270;2024-02-23T10:24:51;7.80;63.60
46752;DHT22;32497;48.936;9.270;2024-02-23T10:29:52;7.60;63.10
46752;DHT22;32497;48.936;9.270;2024-02-23T10:34:54;7.60;64.70
46752;DHT22;32497;48.936;9.270;2024-02-23T10:39:58;7.90;63.80
46752;DHT22;32497;48.936;9.270;2024-02-23T10:45:01;8.20;62.50
46752;DHT22;32497;48.936;9.270;2024-02-23T10:50:03;8.00;63.10
46752;DHT22;32497;48.936;9.270;2024-02-23T10:55:07;8.30;62.50
46752;DHT22;32497;48.936;9.270;2024-02-23T11:00:10;8.60;61.60
46752;DHT22;32497;48.936;9.270;2024-02-23T11:05:12;8.60;60.80
46752;DHT22;32497;48.936;9.270;2024-02-23T11:10:16;8.60;61.00
46752;DHT22;32497;48.936;9.270;2024-02-23T11:15:26;8.40;61.00
46752;DHT22;32497;48.936;9.270;2024-02-23T11:20:34;8.60;62.60
46752;DHT22;32497;48.936;9.270;2024-02-23T11:25:37;9.10;61.00
46752;DHT22;32497;48.936;9.270;2024-02-23T11:30:44;9.10;59.50
46752;DHT22;32497;48.936;9.270;2024-02-23T11:35:46;8.70;59.30
46752;DHT22;32497;48.936;9.270;2024-02-23T11:40:49;9.10;60.10
46752;DHT22;32497;48.936;9.270;2024-02-23T11:45:51;9.50;58.90
46752;DHT22;32497;48.936;9.270;2024-02-23T11:50:52;9.60;58.30
46752;DHT22;32497;48.936;9.270;2024-02-23T11:55:55;9.20;58.90
46752;DHT22;32497;48.936;9.270;2024-02-23T12:00:56;9.40;58.00
46752;DHT22;32497;48.936;9.270;2024-02-23T12:05:58;9.80;58.80
46752;DHT22;32497;48.936;9.270;2024-02-23T12:11:01;10.10;56.40
46752;DHT22;32497;48.936;9.270;2024-02-23T12:16:03;10.20;56.00
46752;DHT22;32497;48.936;9.270;2024-02-23T12:21:05;10.20;55.90
46752;DHT22;32497;48.936;9.270;2024-02-23T12:26:08;9.70;56.10
46752;DHT22;32497;48.936;9.270;2024-02-23T12:31:10;9.40;57.60
46752;DHT22;32497;48.936;9.270;2024-02-23T12:36:11;9.20;57.20
46752;DHT22;32497;48.936;9.270;2024-02-23T12:41:14;9.10;57.80
46752;DHT22;32497;48.936;9.270;2024-02-23T12:46:15;9.30;59.40
46752;DHT22;32497;48.936;9.270;2024-02-23T12:51:16;9.30;58.00
46752;DHT22;32497;48.936;9.270;2024-02-23T12:56:19;9.40;58.60
46752;DHT22;32497;48.936;9.270;2024-02-23T13:01:20;9.40;57.60
46752;DHT22;32497;48.936;9.270;2024-02-23T13:06:21;9.40;56.80
46752;DHT22;32497;48.936;9.270;2024-02-23T13:11:24;9.50;58.40
46752;DHT22;32497;48.936;9.270;2024-02-23T13:16:25;9.70;58.10
46752;DHT22;32497;48.936;9.270;2024-02-23T13:21:27;9.70;57.10
46752;DHT22;32497;48.936;9.270;2024-02-23T13:26:29;9.50;58.00
46752;DHT22;32497;48.936;9.270;2024-02-23T13:31:30;9.40;59.10
46752;DHT22;32497;48.936;9.270;2024-02-23T13:36:32;9.80;55.50
46752;DHT22;32497;48.936;9.270;2024-02-23T13:41:34;10.10;55.50
46752;DHT22;32497;48.936;9.270;2024-02-23T13:46:38;10.20;55.30
46752;DHT22;32497;48.936;9.270;2024-02-23T13:51:39;10.00;56.50
46752;DHT22;32497;48.936;9.270;2024-02-23T13:56:42;10.00;56.20
46752;DHT22;32497;48.936;9.270;2024-02-23T14:01:43;9.80;58.00
46752;DHT22;32497;48.936;9.270;2024-02-23T14:06:45;10.10;57.10
46752;DHT22;32497;48.936;9.270;2024-02-23T14:11:47;10.00;57.70
46752;DHT22;32497;48.936;9.270;2024-02-23T14:16:48;9.90;56.40
46752;DHT22;32497;48.936;9.270;2024-02-23T14:21:49;9.40;57.40
46752;DHT22;32497;48.936;9.270;2024-02-23T14:26:52;9.60;58.90
46752;DHT22;32497;48.936;9.270;2024-02-23T14:31:53;9.90;57.60
46752;DHT22;32497;48.936;9.270;2024-02-23T14:36:54;9.90;58.50
46752;DHT22;32497;48.936;9.270;2024-02-23T14:41:57;9.70;58.80
46752;DHT22;32497;48.936;9.270;2024-02-23T14:46:58;9.60;59.70
46752;DHT22;32497;48.936;9.270;2024-02-23T14:51:59;9.20;59.80
46752;DHT22;32497;48.936;9.270;2024-02-23T14:57:02;9.30;58.80
46752;DHT22;32497;48.936;9.270;2024-02-23T15:02:04;9.40;59.50
46752;DHT22;32497;48.936;9.270;2024-02-23T15:07:05;9.40;59.00
46752;DHT22;32497;48.936;9.270;2024-02-23T15:12:08;9.70;59.00
46752;DHT22;32497;48.936;9.270;2024-02-23T15:17:09;9.60;58.50
46752;DHT22;32497;48.936;9.270;2024-02-23T15:22:11;9.50;58.80
46752;DHT22;32497;48.936;9.270;2024-02-23T15:27:13;9.30;60.20
46752;DHT22;32497;48.936;9.270;2024-02-23T15:32:14;9.20;61.10
46752;DHT22;32497;48.936;9.270;2024-02-23T15:37:16;8.70;62.50
46752;DHT22;32497;48.936;9.270;2024-02-23T15:42:18;8.70;62.90
46752;DHT22;32497;48.936;9.270;2024-02-23T15:47:20;8.70;62.70
46752;DHT22;32497;48.936;9.270;2024-02-23T15:52:21;8.60;63.00
46752;DHT22;32497;48.936;9.270;2024-02-23T15:57:24;8.50;63.90
46752;DHT22;32497;48.936;9.270;2024-02-23T16:02:25;8.50;64.00
46752;DHT22;32497;48.936;9.270;2024-02-23T16:07:26;8.60;65.90
46752;DHT22;32497;48.936;9.270;2024-02-23T16:12:29;9.00;63.50
46752;DHT22;32497;48.936;9.270;2024-02-23T16:17:30;9.10;60.20
46752;DHT22;32497;48.936;9.270;2024-02-23T16:22:31;9.10;61.30
46752;DHT22;32497;48.936;9.270;2024-02-23T16:27:34;8.70;61.60
46752;DHT22;32497;48.936;9.270;2024-02-23T16:32:35;8.30;61.90
46752;DHT22;32497;48.936;9.270;2024-02-23T16:37:36;8.10;63.30
46752;DHT22;32497;48.936;9.270;2024-02-23T16:42:39;7.80;64.30
46752;DHT22;32497;48.936;9.270;2024-02-23T16:47:41;7.50;66.20
46752;DHT22;32497;48.936;9.270;2024-02-23T16:52:42;7.20;67.70
46752;DHT22;32497;48.936;9.270;2024-02-23T16:57:44;6.90;69.40
46752;DHT22;32497;48.936;9.270;2024-02-23T17:02:45;6.60;70.70
46752;DHT22;32497;48.936;9.270;2024-02-23T17:07:47;6.30;72.20
46752;DHT22;32497;48.936;9.270;2024-02-23T17:12:49;6.10;72.90
46752;DHT22;32497;48.936;9.270;2024-02-23T17:17:50;5.90;74.10
46752;DHT22;32497;48.936;9.270;2024-02-23T17:22:51;5.90;74.80
46752;DHT22;32497;48.936;9.270;2024-02-23T17:27:54;5.90;74.90
46752;DHT22;32497;48.936;9.270;2024-02-23T17:32:55;6.00;74.40
46752;DHT22;32497;48.936;9.270;2024-02-23T17:37:56;6.30;73.30
46752;DHT22;32497;48.936;9.270;2024-02-23T17:42:58;6.40;72.70
46752;DHT22;32497;48.936;9.270;2024-02-23T17:47:59;6.50;71.60
46752;DHT22;32497;48.936;9.270;2024-02-23T17:53:01;6.70;70.80
46752;DHT22;32497;48.936;9.270;2024-02-23T17:58:03;6.70;70.60
46752;DHT22;32497;48.936;9.270;2024-02-23T18:03:04;6.80;69.90
46752;DHT22;32497;48.936;9.270;2024-02-23T18:08:07;6.80;69.60
46752;DHT22;32497;48.936;9.270;2024-02-23T18:13:10;6.90;69.90
46752;DHT22;32497;48.936;9.270;2024-02-23T18:18:11;6.80;70.10
46752;DHT22;32497;48.936;9.270;2024-02-23T18:23:12;6.90;69.40
46752;DHT22;32497;48.936;9.270;2024-02-23T18:28:14;6.90;69.10
46752;DHT22;32497;48.936;9.270;2024-02-23T18:33:16;6.80;69.90
46752;DHT22;32497;48.936;9.270;2024-02-23T18:38:17;6.70;70.30
46752;DHT22;32497;48.936;9.270;2024-02-23T18:43:19;6.50;70.40
46752;DHT22;32497;48.936;9.270;2024-02-23T18:48:20;6.40;71.20
46752;DHT22;32497;48.936;9.270;2024-02-23T18:53:21;6.30;71.10
46752;DHT22;32497;48.936;9.270;2024-02-23T18:58:24;6.30;71.60
46752;DHT22;32497;48.936;9.270;2024-02-23T19:03:25;6.10;72.00
46752;DHT22;32497;48.936;9.270;2024-02-23T19:08:26;5.70;72.90
46752;DHT22;32497;48.936;9.270;2024-02-23T19:13:28;5.50;74.00
46752;DHT22;32497;48.936;9.270;2024-02-23T19:18:29;5.30;73.70
46752;DHT22;32497;48.936;9.270;2024-02-23T19:23:30;5.10;74.70
46752;DHT22;32497;48.936;9.270;2024-02-23T19:28:33;4.90;75.50
46752;DHT22;32497;48.936;9.270;2024-02-23T19:33:34;4.70;76.00
46752;DHT22;32497;48.936;9.270;2024-02-23T19:38:35;4.60;76.50
46752;DHT22;32497;48.936;9.270;2024-02-23T19:43:38;4.50;76.80
46752;DHT22;32497;48.936;9.270;2024-02-23T19:48:39;4.30;77.00
46752;DHT22;32497;48.936;9.270;2024-02-23T19:53:40;4.30;77.00
46752;DHT22;32497;48.936;9.270;2024-02-23T19:58:43;4.30;76.70
46752;DHT22;32497;48.936;9.270;2024-02-23T20:03:44;4.20;76.80
46752;DHT22;32497;48.936;9.270;2024-02-23T20:08:45;4.30;76.50
46752;DHT22;32497;48.936;9.270;2024-02-23T20:13:48;4.20;76.40
46752;DHT22;32497;48.936;9.270;2024-02-23T20:18:49;4.20;76.20
46752;DHT22;32497;48.936;9.270;2024-02-23T20:23:50;4.20;75.50
46752;DHT22;32497;48.936;9.270;2024-02-23T20:28:53;4.10;76.20
46752;DHT22;32497;48.936;9.270;2024-02-23T20:33:54;4.00;76.80
46752;DHT22;32497;48.936;9.270;2024-02-23T20:38:55;3.90;76.70
46752;DHT22;32497;48.936;9.270;2024-02-23T20:43:58;3.90;77.20
46752;DHT22;32497;48.936;9.270;2024-02-23T20:49:00;3.60;78.00
46752;DHT22;32497;48.936;9.270;2024-02-23T20:54:01;3.50;77.90
46752;DHT22;32497;48.936;9.270;2024-02-23T20:59:04;3.60;77.60
46752;DHT22;32497;48.936;9.270;2024-02-23T21:04:05;3.40;78.40
46752;DHT22;32497;48.936;9.270;2024-02-23T21:09:06;3.50;77.90
46752;DHT22;32497;48.936;9.270;2024-02-23T21:14:08;3.40;77.80
46752;DHT22;32497;48.936;9.270;2024-02-23T21:19:10;3.50;77.30
46752;DHT22;32497;48.936;9.270;2024-02-23T21:24:11;3.50;77.00
46752;DHT22;32497;48.936;9.270;2024-02-23T21:29:13;3.40;77.20
46752;DHT22;32497;48.936;9.270;2024-02-23T21:34:14;3.20;78.30
46752;DHT22;32497;48.936;9.270;2024-02-23T21:39:15;3.10;78.40
46752;DHT22;32497;48.936;9.270;2024-02-23T21:44:18;3.00;78.80
46752;DHT22;32497;48.936;9.270;2024-02-23T21:49:19;2.80;79.70
46752;DHT22;32497;48.936;9.270;2024-02-23T21:54:20;2.60;80.50
46752;DHT22;32497;48.936;9.270;2024-02-23T21:59:22;2.40;80.90
46752;DHT22;32497;48.936;9.270;2024-02-23T22:04:24;2.30;81.50
46752;DHT22;32497;48.936;9.270;2024-02-23T22:09:25;2.10;81.50
46752;DHT22;32497;48.936;9.270;2024-02-23T22:14:27;2.10;81.90
46752;DHT22;32497;48.936;9.270;2024-02-23T22:19:28;2.00;82.30
46752;DHT22;32497;48.936;9.270;2024-02-23T22:24:29;1.90;82.70
46752;DHT22;32497;48.936;9.270;2024-02-23T22:29:32;1.70;82.80
46752;DHT22;32497;48.936;9.270;2024-02-23T22:34:33;1.70;82.60
46752;DHT22;32497;48.936;9.270;2024-02-23T22:39:34;1.90;82.50
46752;DHT22;32497;48.936;9.270;2024-02-23T22:44:36;2.20;81.10
46752;DHT22;32497;48.936;9.270;2024-02-23T22:49:38;2.40;80.20
46752;DHT22;32497;48.936;9.270;2024-02-23T22:54:39;2.20;80.40
46752;DHT22;32497;48.936;9.270;2024-02-23T22:59:41;1.90;81.80
46752;DHT22;32497;48.936;9.270;2024-02-23T23:04:43;1.70;82.50
46752;DHT22;32497;48.936;9.270;2024-02-23T23:09:44;1.60;83.50
46752;DHT22;32497;48.936;9.270;2024-02-23T23:14:46;1.50;83.70
46752;DHT22;32497;48.936;9.270;2024-02-23T23:19:47;1.50;84.30
46752;DHT22;32497;48.936;9.270;2024-02-23T23:24:48;1.50;84.10
46752;DHT22;32497;48.936;9.270;2024-02-23T23:29:51;1.60;83.50
46752;DHT22;32497;48.936;9.270;2024-02-23T23:34:52;1.50;83.20
46752;DHT22;32497;48.936;9.270;2024-02-23T23:39:53;1.30;83.70
46752;DHT22;32497;48.936;9.270;2024-02-23T23:44:55;1.20;84.20
46752;DHT22;32497;48.936;9.270;2024-02-23T23:49:56;1.20;84.60
46752;DHT22;32497;48.936;9.270;2024-02-23T23:54:57;1.10;84.40
